首页
METAR-TAF:

METAR-TAF

机场 :

Southern Illinois Airport

Carbondale / Murphysboro, 伊利诺伊州, 美国

纬度: 37-46-59N, 经度: 089-14-42W, 海拔: 125米

当前天气观测

该预报发布于13分钟前的21:52 UTC
风速8节,风向西南
温度 6°C
湿度 42%
气压 1020 hPa
能見度: 16.1公里
阴天层高于9000英尺

METAR: KMDH 272152Z 22008KT 10SM OVC090 06/M06 A3012 RMK AO2 SLP203 T00611056

时间: 16:05 (22:05 UTC)


TAF: 丢失

超过4000个机场的气象观测和天气预报(METAR&TAF报告)。

可查询的气象台以黄色和红色小点在地图上表示。

将鼠标移到小点上方,可查看气象台名称。

然后点击查看天气观测和预报。

如需切换地图:点击带黑十字的绿色按钮放大地图;点击带横线的绿色按钮缩小地图;或者点击绿色箭头查看邻近地区的地图。


METAR-TAF: